| time (UTC) | temp F | wind direction | speed MPH | gust MPH | rain 1hr in | rain 24hr in | rain mn in | humidity % | barometer mb |
| 20260507201525 | 65 | 119 | 2.0 | 3.0 | 0.00 | 0.00 | 0.00 | 37 | 1006.0 |
| 20260507201022 | 68 | 205 | 1.0 | 2.0 | 0.00 | 0.00 | 0.00 | 36 | 1006.1 |
| 20260507200517 | 67 | 147 | 0.0 | 1.0 | 0.00 | 0.00 | 0.00 | 34 | 1006.1 |
| 20260507200014 | 69 | 268 | 3.0 | 4.0 | 0.00 | 0.00 | 0.00 | 33 | 1006.2 |
| 20260507195511 | 68 | 272 | 1.0 | 1.0 | 0.00 | 0.00 | 0.00 | 33 | 1006.1 |
| 20260507195009 | 65 | 224 | 1.0 | 2.0 | 0.00 | 0.00 | 0.00 | 39 | 1006.3 |
| 20260507194505 | 66 | 68 | 0.0 | 0.0 | 0.00 | 0.00 | 0.00 | 35 | 1006.3 |
| 20260507194001 | 67 | 150 | 0.0 | 1.0 | 0.00 | 0.00 | 0.00 | 37 | 1006.2 |
| 20260507193458 | 64 | 126 | 0.0 | 0.0 | 0.00 | 0.00 | 0.00 | 42 | 1006.4 |
| 20260507192954 | 64 | 149 | 1.0 | 1.0 | 0.00 | 0.00 | 0.00 | 39 | 1006.2 |
| 20260507192450 | 68 | 248 | 4.0 | 4.0 | 0.00 | 0.00 | 0.00 | 34 | 1006.5 |
| 20260507191948 | 66 | 24 | 1.0 | 1.0 | 0.00 | 0.00 | 0.00 | 38 | 1006.4 |
| 20260507191443 | 64 | 129 | 0.0 | 1.0 | 0.00 | 0.00 | 0.00 | 38 | 1006.5 |
| 20260507190940 | 64 | 99 | 1.0 | 1.0 | 0.00 | 0.00 | 0.00 | 43 | 1006.6 |
| 20260507190438 | 64 | 96 | 0.0 | 0.0 | 0.00 | 0.00 | 0.00 | 40 | 1006.5 |
| 20260507185937 | 68 | 96 | 3.0 | 3.0 | 0.00 | 0.00 | 0.00 | 37 | 1006.6 |
| 20260507185434 | 66 | 96 | 2.0 | 3.0 | 0.00 | 0.00 | 0.00 | 37 | 1006.8 |
| 20260507184930 | 66 | 154 | 1.0 | 1.0 | 0.00 | 0.00 | 0.00 | 37 | 1006.8 |
| 20260507184428 | 69 | 182 | 1.0 | 1.0 | 0.00 | 0.00 | 0.00 | 38 | 1007.0 |
| 20260507183926 | 68 | 310 | 2.0 | 3.0 | 0.00 | 0.00 | 0.00 | 38 | 1007.0 |
| 20260507183422 | 68 | 16 | 1.0 | 1.0 | 0.00 | 0.00 | 0.00 | 41 | 1006.9 |
| 20260507182920 | 68 | 178 | 1.0 | 1.0 | 0.00 | 0.00 | 0.00 | 40 | 1006.9 |
| 20260507182415 | 67 | 71 | 2.0 | 2.0 | 0.00 | 0.00 | 0.00 | 42 | 1006.8 |
| 20260507181912 | 68 | 174 | 1.0 | 2.0 | 0.00 | 0.00 | 0.00 | 40 | 1006.9 |
| 20260507181408 | 69 | 236 | 2.0 | 3.0 | 0.00 | 0.00 | 0.00 | 40 | 1007.0 |
| 20260507180905 | 69 | 281 | 3.0 | 6.0 | 0.00 | 0.00 | 0.00 | 36 | 1007.1 |
| 20260507180402 | 68 | 236 | 1.0 | 1.0 | 0.00 | 0.00 | 0.00 | 39 | 1007.1 |
| 20260507175858 | 68 | 123 | 1.0 | 1.0 | 0.00 | 0.00 | 0.00 | 39 | 1007.2 |
| 20260507175354 | 66 | 238 | 1.0 | 1.0 | 0.00 | 0.00 | 0.00 | 40 | 1007.4 |
| 20260507174852 | 64 | 68 | 2.0 | 2.0 | 0.00 | 0.00 | 0.00 | 43 | 1007.4 |
| 20260507174349 | 64 | 98 | 1.0 | 1.0 | 0.00 | 0.00 | 0.00 | 45 | 1007.4 |
| 20260507173847 | 66 | 97 | 1.0 | 2.0 | 0.00 | 0.00 | 0.00 | 43 | 1007.7 |
| 20260507173344 | 65 | 32 | 2.0 | 2.0 | 0.00 | 0.00 | 0.00 | 43 | 1007.9 |
| 20260507172840 | 65 | 64 | 2.0 | 3.0 | 0.00 | 0.00 | 0.00 | 42 | 1008.0 |
| 20260507172337 | 66 | 76 | 2.0 | 2.0 | 0.00 | 0.00 | 0.00 | 45 | 1008.2 |
| 20260507171832 | 64 | 94 | 2.0 | 2.0 | 0.00 | 0.00 | 0.00 | 44 | 1008.0 |
| 20260507171330 | 64 | 20 | 2.0 | 2.0 | 0.00 | 0.00 | 0.00 | 42 | 1008.0 |
| 20260507170827 | 65 | 77 | 5.0 | 7.0 | 0.00 | 0.00 | 0.00 | 42 | 1008.5 |
| 20260507170323 | 63 | 8 | 2.0 | 3.0 | 0.00 | 0.00 | 0.00 | 44 | 1008.2 |
| 20260507165819 | 66 | 1 | 2.0 | 2.0 | 0.00 | 0.00 | 0.00 | 41 | 1008.5 |
| 20260507165315 | 64 | 38 | 2.0 | 3.0 | 0.00 | 0.00 | 0.00 | 43 | 1008.4 |
| 20260507164811 | 65 | 26 | 2.0 | 2.0 | 0.00 | 0.00 | 0.00 | 43 | 1008.3 |
| 20260507164309 | 65 | 112 | 1.0 | 1.0 | 0.00 | 0.00 | 0.00 | 41 | 1008.5 |
| 20260507163806 | 63 | 209 | 0.0 | 1.0 | 0.00 | 0.00 | 0.00 | 46 | 1008.8 |
| 20260507163303 | 61 | 335 | 3.0 | 4.0 | 0.00 | 0.00 | 0.00 | 47 | 1008.9 |
| 20260507162759 | 61 | 115 | 1.0 | 2.0 | 0.00 | 0.00 | 0.00 | 46 | 1008.7 |
| 20260507162255 | 63 | 111 | 1.0 | 2.0 | 0.00 | 0.00 | 0.00 | 46 | 1009.1 |
| 20260507161752 | 61 | 122 | 3.0 | 3.0 | 0.00 | 0.00 | 0.00 | 46 | 1009.1 |
| 20260507161249 | 63 | 84 | 0.0 | 0.0 | 0.00 | 0.00 | 0.00 | 47 | 1008.8 |
| 20260507160745 | 62 | 122 | 3.0 | 3.0 | 0.00 | 0.00 | 0.00 | 46 | 1009.0 |
| 20260507160241 | 60 | 199 | 1.0 | 2.0 | 0.00 | 0.00 | 0.00 | 46 | 1009.2 |
| 20260507155737 | 62 | 116 | 1.0 | 1.0 | 0.00 | 0.00 | 0.00 | 46 | 1009.3 |
| 20260507155233 | 60 | 133 | 1.0 | 2.0 | 0.00 | 0.00 | 0.00 | 46 | 1009.2 |
| 20260507154730 | 60 | 118 | 4.0 | 4.0 | 0.00 | 0.00 | 0.00 | 47 | 1009.5 |
| 20260507154228 | 60 | 87 | 4.0 | 4.0 | 0.00 | 0.00 | 0.00 | 47 | 1009.2 |
| 20260507153724 | 60 | 24 | 1.0 | 1.0 | 0.00 | 0.00 | 0.00 | 45 | 1009.5 |
| 20260507153221 | 60 | 116 | 0.0 | 1.0 | 0.00 | 0.00 | 0.00 | 49 | 1009.4 |
| 20260507152717 | 61 | 227 | 1.0 | 1.0 | 0.00 | 0.00 | 0.00 | 47 | 1009.4 |
| 20260507152213 | 59 | 82 | 1.0 | 2.0 | 0.00 | 0.00 | 0.00 | 46 | 1009.7 |
| 20260507151709 | 59 | 147 | 2.0 | 3.0 | 0.00 | 0.00 | 0.00 | 46 | 1009.8 |
| 20260507151206 | 58 | 144 | 1.0 | 2.0 | 0.00 | 0.00 | 0.00 | 47 | 1009.6 |
| 20260507150703 | 57 | 286 | 4.0 | 4.0 | 0.00 | 0.00 | 0.00 | 49 | 1009.8 |
| 20260507150200 | 57 | 260 | 1.0 | 2.0 | 0.00 | 0.00 | 0.00 | 50 | 1010.1 |
| 20260507145656 | 56 | 127 | 1.0 | 1.0 | 0.00 | 0.00 | 0.00 | 54 | 1010.0 |
| 20260507145153 | 55 | 78 | 0.0 | 0.0 | 0.00 | 0.00 | 0.00 | 51 | 1010.2 |
| 20260507144649 | 56 | 331 | 3.0 | 3.0 | 0.00 | 0.00 | 0.00 | 53 | 1010.5 |
| 20260507144148 | 55 | 178 | 2.0 | 2.0 | 0.00 | 0.00 | 0.00 | 52 | 1010.5 |
| 20260507143644 | 55 | 89 | 1.0 | 1.0 | 0.00 | 0.00 | 0.00 | 54 | 1010.5 |
| 20260507143141 | 55 | 103 | 3.0 | 3.0 | 0.00 | 0.00 | 0.00 | 52 | 1010.7 |
| 20260507142636 | 54 | 130 | 1.0 | 1.0 | 0.00 | 0.00 | 0.00 | 56 | 1010.5 |
| 20260507142133 | 53 | 91 | 1.0 | 1.0 | 0.00 | 0.00 | 0.00 | 55 | 1010.7 |
| 20260507141629 | 53 | 110 | 3.0 | 3.0 | 0.00 | 0.00 | 0.00 | 55 | 1010.7 |
| 20260507141127 | 53 | 92 | 2.0 | 3.0 | 0.00 | 0.00 | 0.00 | 56 | 1010.7 |
| 20260507140623 | 53 | 125 | 1.0 | 2.0 | 0.00 | 0.00 | 0.00 | 57 | 1010.7 |
| 20260507140120 | 53 | 159 | 1.0 | 1.0 | 0.00 | 0.00 | 0.00 | 54 | 1010.9 |
| 20260507135618 | 53 | 171 | 0.0 | 1.0 | 0.00 | 0.00 | 0.00 | 58 | 1011.2 |
| 20260507135115 | 52 | 112 | 0.0 | 0.0 | 0.00 | 0.00 | 0.00 | 57 | 1011.0 |
| 20260507134611 | 52 | 25 | 2.0 | 2.0 | 0.00 | 0.00 | 0.00 | 56 | 1011.2 |
| 20260507134107 | 52 | 81 | 0.0 | 0.0 | 0.00 | 0.00 | 0.00 | 55 | 1011.2 |
| 20260507133603 | 52 | 112 | 0.0 | 0.0 | 0.00 | 0.00 | 0.00 | 55 | 1011.2 |
| 20260507133101 | 52 | 98 | 1.0 | 2.0 | 0.00 | 0.00 | 0.00 | 57 | 1011.3 |
| 20260507132557 | 51 | 137 | 0.0 | 0.0 | 0.00 | 0.00 | 0.00 | 59 | 1011.3 |
| 20260507132054 | 51 | 58 | 2.0 | 2.0 | 0.00 | 0.00 | 0.00 | 55 | 1011.3 |
| 20260507131551 | 51 | 63 | 4.0 | 4.0 | 0.00 | 0.00 | 0.00 | 57 | 1011.3 |
| 20260507131049 | 51 | 231 | 2.0 | 3.0 | 0.00 | 0.00 | 0.00 | 57 | 1011.2 |
| 20260507130545 | 51 | 103 | 2.0 | 2.0 | 0.00 | 0.00 | 0.00 | 61 | 1011.3 |
| 20260507130043 | 51 | 115 | 1.0 | 1.0 | 0.00 | 0.00 | 0.00 | 60 | 1011.2 |
| 20260507125542 | 51 | 42 | 1.0 | 1.0 | 0.00 | 0.00 | 0.00 | 58 | 1011.2 |
| 20260507125039 | 51 | 44 | 1.0 | 2.0 | 0.00 | 0.00 | 0.00 | 58 | 1011.3 |
| 20260507124535 | 51 | 73 | 1.0 | 1.0 | 0.00 | 0.00 | 0.00 | 58 | 1011.2 |
| 20260507124033 | 51 | 144 | 1.0 | 1.0 | 0.00 | 0.00 | 0.00 | 57 | 1011.4 |
| 20260507123531 | 51 | 84 | 2.0 | 2.0 | 0.00 | 0.00 | 0.00 | 60 | 1011.3 |
| 20260507123027 | 51 | 107 | 2.0 | 3.0 | 0.00 | 0.00 | 0.00 | 60 | 1011.4 |
| 20260507122522 | 50 | 64 | 1.0 | 1.0 | 0.00 | 0.00 | 0.00 | 63 | 1011.4 |
| 20260507122019 | 50 | 79 | 1.0 | 1.0 | 0.00 | 0.00 | 0.00 | 65 | 1011.2 |
| 20260507121514 | 50 | 78 | 0.0 | 1.0 | 0.00 | 0.00 | 0.00 | 65 | 1011.3 |
| 20260507121010 | 50 | 80 | 0.0 | 0.0 | 0.00 | 0.00 | 0.00 | 67 | 1011.4 |
| 20260507120507 | 50 | 80 | 0.0 | 0.0 | 0.00 | 0.00 | 0.00 | 70 | 1011.5 |
| 20260507120004 | 50 | 80 | 0.0 | 0.0 | 0.00 | 0.00 | 0.00 | 73 | 1011.3 |
| 20260507115500 | 50 | 79 | 0.0 | 0.0 | 0.00 | 0.00 | 0.00 | 72 | 1011.1 |
| 20260507114955 | 50 | 93 | 0.0 | 1.0 | 0.00 | 0.00 | 0.00 | 71 | 1011.1 |
| 20260507114452 | 49 | 93 | 0.0 | 0.0 | 0.00 | 0.00 | 0.00 | 71 | 1011.1 |
| 20260507113949 | 49 | 93 | 0.0 | 0.0 | 0.00 | 0.00 | 0.00 | 74 | 1011.1 |
| 20260507113446 | 49 | 94 | 0.0 | 0.0 | 0.00 | 0.00 | 0.00 | 73 | 1011.1 |
| 20260507112943 | 49 | 89 | 0.0 | 0.0 | 0.00 | 0.00 | 0.00 | 73 | 1011.0 |
| 20260507112441 | 49 | 74 | 2.0 | 2.0 | 0.00 | 0.00 | 0.00 | 74 | 1010.7 |
| 20260507111938 | 49 | 92 | 1.0 | 1.0 | 0.00 | 0.00 | 0.00 | 76 | 1011.0 |
| 20260507111435 | 49 | 93 | 0.0 | 0.0 | 0.00 | 0.00 | 0.00 | 76 | 1010.8 |
| 20260507110931 | 49 | 93 | 1.0 | 1.0 | 0.00 | 0.00 | 0.00 | 76 | 1010.7 |
| 20260507110427 | 49 | 91 | 0.0 | 1.0 | 0.00 | 0.00 | 0.00 | 76 | 1010.7 |
| 20260507105924 | 50 | 93 | 0.0 | 0.0 | 0.00 | 0.00 | 0.00 | 77 | 1010.7 |
| 20260507105421 | 50 | 96 | 0.0 | 0.0 | 0.00 | 0.00 | 0.00 | 77 | 1010.8 |
| 20260507104918 | 50 | 127 | 0.0 | 0.0 | 0.00 | 0.00 | 0.00 | 78 | 1010.7 |
| 20260507104415 | 50 | 127 | 0.0 | 0.0 | 0.00 | 0.00 | 0.00 | 78 | 1010.8 |
| 20260507103910 | 50 | 127 | 0.0 | 1.0 | 0.00 | 0.00 | 0.00 | 79 | 1010.6 |
| 20260507103407 | 50 | 102 | 0.0 | 0.0 | 0.00 | 0.00 | 0.00 | 79 | 1010.5 |
| 20260507102903 | 50 | 102 | 0.0 | 0.0 | 0.00 | 0.00 | 0.00 | 77 | 1010.6 |
| 20260507102400 | 50 | 101 | 0.0 | 0.0 | 0.00 | 0.00 | 0.00 | 76 | 1010.3 |
| 20260507101857 | 50 | 144 | 0.0 | 0.0 | 0.00 | 0.00 | 0.00 | 77 | 1010.4 |
| 20260507101356 | 50 | 138 | 0.0 | 0.0 | 0.00 | 0.00 | 0.00 | 77 | 1010.2 |
| 20260507100854 | 50 | 137 | 1.0 | 1.0 | 0.00 | 0.00 | 0.00 | 80 | 1010.2 |
| 20260507100351 | 50 | 137 | 1.0 | 1.0 | 0.00 | 0.00 | 0.00 | 79 | 1010.2 |
| 20260507095849 | 50 | 131 | 1.0 | 1.0 | 0.00 | 0.00 | 0.00 | 80 | 1009.8 |
| 20260507095345 | 50 | 131 | 0.0 | 0.0 | 0.00 | 0.00 | 0.00 | 81 | 1010.2 |
| 20260507094843 | 50 | 130 | 0.0 | 0.0 | 0.00 | 0.00 | 0.00 | 82 | 1010.1 |
| 20260507094339 | 50 | 130 | 0.0 | 0.0 | 0.00 | 0.00 | 0.00 | 82 | 1010.2 |
| 20260507093837 | 50 | 142 | 1.0 | 1.0 | 0.00 | 0.00 | 0.00 | 82 | 1010.2 |
| 20260507093335 | 50 | 156 | 0.0 | 1.0 | 0.00 | 0.00 | 0.00 | 85 | 1010.2 |
| 20260507092832 | 50 | 157 | 1.0 | 1.0 | 0.00 | 0.00 | 0.00 | 85 | 1010.1 |
| 20260507092328 | 50 | 152 | 0.0 | 0.0 | 0.00 | 0.00 | 0.00 | 86 | 1009.8 |
| 20260507091825 | 51 | 147 | 1.0 | 1.0 | 0.00 | 0.00 | 0.00 | 85 | 1009.8 |
| 20260507091322 | 51 | 139 | 1.0 | 1.0 | 0.00 | 0.00 | 0.00 | 84 | 1009.8 |
| 20260507090817 | 51 | 139 | 1.0 | 1.0 | 0.00 | 0.00 | 0.00 | 84 | 1009.7 |
| 20260507090314 | 51 | 166 | 1.0 | 2.0 | 0.00 | 0.00 | 0.00 | 84 | 1010.1 |
| 20260507085811 | 51 | 158 | 0.0 | 1.0 | 0.00 | 0.00 | 0.00 | 84 | 1010.0 |
| 20260507085308 | 51 | 160 | 0.0 | 0.0 | 0.00 | 0.00 | 0.00 | 84 | 1010.0 |
| 20260507084805 | 51 | 160 | 0.0 | 1.0 | 0.00 | 0.00 | 0.00 | 85 | 1010.3 |
| 20260507084301 | 51 | 147 | 0.0 | 1.0 | 0.00 | 0.00 | 0.00 | 84 | 1010.0 |
| 20260507083759 | 51 | 126 | 0.0 | 1.0 | 0.00 | 0.00 | 0.00 | 84 | 1010.2 |
| 20260507083255 | 51 | 125 | 0.0 | 0.0 | 0.00 | 0.00 | 0.00 | 84 | 1009.8 |
| 20260507082751 | 51 | 158 | 1.0 | 1.0 | 0.00 | 0.00 | 0.00 | 84 | 1010.0 |
| 20260507082247 | 51 | 133 | 0.0 | 0.0 | 0.00 | 0.00 | 0.00 | 84 | 1010.0 |
| 20260507081744 | 51 | 133 | 0.0 | 0.0 | 0.00 | 0.00 | 0.00 | 83 | 1009.8 |
| 20260507081240 | 51 | 156 | 0.0 | 1.0 | 0.00 | 0.00 | 0.00 | 84 | 1010.1 |
| 20260507080737 | 51 | 156 | 0.0 | 0.0 | 0.00 | 0.00 | 0.00 | 84 | 1010.3 |
| 20260507080233 | 51 | 157 | 1.0 | 1.0 | 0.00 | 0.00 | 0.00 | 83 | 1009.8 |
| 20260507075729 | 51 | 156 | 0.0 | 0.0 | 0.00 | 0.00 | 0.00 | 85 | 1009.8 |
| 20260507075225 | 51 | 155 | 0.0 | 0.0 | 0.00 | 0.00 | 0.00 | 86 | 1009.7 |
| 20260507074721 | 51 | 156 | 0.0 | 0.0 | 0.00 | 0.00 | 0.00 | 84 | 1009.6 |
| 20260507074220 | 51 | 156 | 0.0 | 1.0 | 0.00 | 0.00 | 0.00 | 83 | 1009.5 |
| 20260507073716 | 51 | 159 | 0.0 | 0.0 | 0.00 | 0.00 | 0.00 | 83 | 1009.6 |
| 20260507073213 | 51 | 142 | 0.0 | 1.0 | 0.00 | 0.00 | 0.00 | 84 | 1009.4 |
| 20260507072711 | 51 | 142 | 1.0 | 1.0 | 0.00 | 0.00 | 0.00 | 84 | 1009.5 |
| 20260507072208 | 51 | 157 | 1.0 | 1.0 | 0.00 | 0.00 | 0.00 | 84 | 1009.5 |
| 20260507071705 | 51 | 157 | 1.0 | 1.0 | 0.00 | 0.00 | 0.00 | 84 | 1009.7 |
| 20260507071201 | 51 | 157 | 0.0 | 0.0 | 0.00 | 0.00 | 0.00 | 84 | 1009.6 |
| 20260507070659 | 51 | 157 | 0.0 | 0.0 | 0.00 | 0.00 | 0.00 | 85 | 1009.7 |
| 20260507070155 | 51 | 157 | 0.0 | 0.0 | 0.00 | 0.00 | 0.00 | 84 | 1009.6 |
| 20260507065652 | 51 | 157 | 0.0 | 0.0 | 0.00 | 0.00 | 0.00 | 84 | 1009.7 |
| 20260507065149 | 51 | 157 | 0.0 | 0.0 | 0.00 | 0.00 | 0.00 | 85 | 1009.8 |
| 20260507064646 | 51 | 157 | 0.0 | 0.0 | 0.00 | 0.00 | 0.00 | 86 | 1009.5 |
| 20260507064144 | 51 | 157 | 0.0 | 0.0 | 0.00 | 0.00 | 0.00 | 85 | 1009.8 |
| 20260507063642 | 51 | 157 | 0.0 | 0.0 | 0.00 | 0.00 | 0.00 | 85 | 1010.0 |
| 20260507063138 | 51 | 157 | 0.0 | 0.0 | 0.00 | 0.00 | 0.00 | 85 | 1010.0 |
| 20260507062635 | 51 | 157 | 0.0 | 0.0 | 0.00 | 0.00 | 0.00 | 85 | 1010.0 |
| 20260507062133 | 51 | 157 | 0.0 | 0.0 | 0.00 | 0.00 | 0.00 | 85 | 1010.1 |
| 20260507061631 | 51 | 157 | 0.0 | 0.0 | 0.00 | 0.00 | 0.00 | 84 | 1010.2 |
| 20260507061128 | 51 | 157 | 0.0 | 0.0 | 0.00 | 0.00 | 0.00 | 84 | 1010.2 |
| 20260507060626 | 51 | 157 | 0.0 | 0.0 | 0.00 | 0.00 | 0.00 | 84 | 1010.7 |
| 20260507060123 | 51 | 129 | 0.0 | 0.0 | 0.00 | 0.00 | 0.00 | 86 | 1010.6 |
| 20260507055618 | 51 | 128 | 0.0 | 0.0 | 0.00 | 0.00 | 0.00 | 85 | 1010.5 |
| 20260507055114 | 51 | 128 | 0.0 | 0.0 | 0.00 | 0.00 | 0.00 | 84 | 1010.5 |
| 20260507054610 | 51 | 156 | 0.0 | 0.0 | 0.00 | 0.00 | 0.00 | 86 | 1010.7 |
| 20260507054108 | 51 | 156 | 0.0 | 0.0 | 0.00 | 0.00 | 0.00 | 85 | 1010.4 |
| 20260507053605 | 51 | 228 | 2.0 | 2.0 | 0.00 | 0.00 | 0.00 | 84 | 1010.5 |
| 20260507053104 | 51 | 155 | 0.0 | 0.0 | 0.00 | 0.00 | 0.00 | 84 | 1010.4 |
| 20260507052601 | 51 | 155 | 1.0 | 1.0 | 0.00 | 0.00 | 0.00 | 85 | 1010.7 |
| 20260507052058 | 51 | 155 | 0.0 | 1.0 | 0.00 | 0.00 | 0.00 | 84 | 1010.4 |
| 20260507051555 | 51 | 151 | 0.0 | 0.0 | 0.00 | 0.00 | 0.00 | 85 | 1010.5 |
| 20260507051052 | 51 | 114 | 0.0 | 0.0 | 0.00 | 0.00 | 0.00 | 84 | 1010.2 |
| 20260507050549 | 52 | 137 | 0.0 | 0.0 | 0.00 | 0.00 | 0.00 | 84 | 1010.1 |
| 20260507050045 | 52 | 105 | 2.0 | 2.0 | 0.00 | 0.00 | 0.00 | 83 | 1010.0 |
| 20260507045542 | 52 | 118 | 0.0 | 0.0 | 0.00 | 0.00 | 0.00 | 83 | 1010.2 |
| 20260507045039 | 52 | 95 | 2.0 | 2.0 | 0.00 | 0.00 | 0.00 | 82 | 1010.1 |
| 20260507044536 | 52 | 64 | 0.0 | 0.0 | 0.00 | 0.00 | 0.00 | 84 | 1010.1 |
| 20260507044033 | 52 | 130 | 1.0 | 2.0 | 0.00 | 0.00 | 0.00 | 83 | 1010.3 |
| 20260507043528 | 52 | 133 | 1.0 | 1.0 | 0.00 | 0.00 | 0.00 | 84 | 1010.2 |
| 20260507043026 | 52 | 134 | 1.0 | 1.0 | 0.00 | 0.00 | 0.00 | 84 | 1010.3 |
| 20260507042522 | 52 | 100 | 2.0 | 2.0 | 0.00 | 0.00 | 0.00 | 84 | 1010.1 |
| 20260507042017 | 52 | 81 | 1.0 | 2.0 | 0.00 | 0.00 | 0.00 | 84 | 1010.3 |
| 20260507041515 | 52 | 157 | 1.0 | 1.0 | 0.00 | 0.00 | 0.00 | 86 | 1010.4 |
| 20260507041012 | 52 | 124 | 1.0 | 2.0 | 0.00 | 0.00 | 0.00 | 86 | 1009.6 |
| 20260507040508 | 53 | 19 | 0.0 | 0.0 | 0.00 | 0.00 | 0.00 | 86 | 1009.4 |
| 20260507040004 | 53 | 111 | 0.0 | 0.0 | 0.00 | 0.07 | 0.07 | 88 | 1010.0 |
| 20260507035500 | 53 | 129 | 1.0 | 1.0 | 0.00 | 0.07 | 0.07 | 88 | 1010.2 |
| 20260507034956 | 54 | 133 | 1.0 | 2.0 | 0.00 | 0.07 | 0.07 | 88 | 1010.6 |
| 20260507034453 | 54 | 136 | 2.0 | 2.0 | 0.00 | 0.07 | 0.07 | 88 | 1010.1 |
| 20260507033952 | 54 | 83 | 0.0 | 0.0 | 0.00 | 0.07 | 0.07 | 87 | 1010.1 |
| 20260507033449 | 54 | 132 | 0.0 | 0.0 | 0.00 | 0.07 | 0.07 | 87 | 1009.8 |
| 20260507032946 | 54 | 132 | 0.0 | 0.0 | 0.00 | 0.07 | 0.07 | 87 | 1009.8 |
| 20260507032443 | 54 | 93 | 0.0 | 0.0 | 0.00 | 0.07 | 0.07 | 86 | 1009.5 |
| 20260507031939 | 54 | 103 | 2.0 | 2.0 | 0.00 | 0.07 | 0.07 | 86 | 1009.6 |
| 20260507031436 | 54 | 88 | 1.0 | 2.0 | 0.00 | 0.07 | 0.07 | 86 | 1009.7 |
| 20260507030933 | 55 | 135 | 1.0 | 1.0 | 0.00 | 0.07 | 0.07 | 86 | 1010.2 |
| 20260507030430 | 55 | 147 | 0.0 | 1.0 | 0.00 | 0.07 | 0.07 | 87 | 1010.5 |
| 20260507025927 | 55 | 144 | 0.0 | 0.0 | 0.00 | 0.07 | 0.07 | 87 | 1010.0 |
| 20260507025424 | 55 | 65 | 0.0 | 0.0 | 0.00 | 0.07 | 0.07 | 85 | 1009.7 |
| 20260507024922 | 55 | 131 | 0.0 | 0.0 | 0.00 | 0.07 | 0.07 | 86 | 1009.6 |
| 20260507024419 | 55 | 161 | 0.0 | 0.0 | 0.00 | 0.07 | 0.07 | 86 | 1009.6 |
| 20260507023915 | 55 | 162 | 0.0 | 0.0 | 0.00 | 0.07 | 0.07 | 85 | 1009.6 |
| 20260507023412 | 55 | 164 | 1.0 | 1.0 | 0.00 | 0.07 | 0.07 | 85 | 1009.2 |
| 20260507022909 | 55 | 151 | 1.0 | 1.0 | 0.00 | 0.07 | 0.07 | 85 | 1009.6 |
| 20260507022406 | 55 | 147 | 0.0 | 0.0 | 0.00 | 0.07 | 0.07 | 85 | 1009.6 |
| 20260507021901 | 55 | 131 | 1.0 | 1.0 | 0.00 | 0.07 | 0.07 | 85 | 1009.5 |
| 20260507021357 | 55 | 83 | 2.0 | 2.0 | 0.00 | 0.07 | 0.07 | 86 | 1009.3 |
| 20260507020855 | 55 | 147 | 2.0 | 2.0 | 0.00 | 0.07 | 0.07 | 87 | 1009.4 |
| 20260507020351 | 56 | 163 | 1.0 | 1.0 | 0.00 | 0.07 | 0.07 | 86 | 1009.4 |
| 20260507015848 | 56 | 124 | 0.0 | 0.0 | 0.00 | 0.07 | 0.07 | 86 | 1009.4 |
| 20260507015346 | 56 | 138 | 0.0 | 0.0 | 0.00 | 0.07 | 0.07 | 86 | 1008.9 |
| 20260507014843 | 56 | 120 | 1.0 | 1.0 | 0.00 | 0.07 | 0.07 | 86 | 1009.3 |
| 20260507014339 | 56 | 173 | 1.0 | 1.0 | 0.00 | 0.07 | 0.07 | 86 | 1009.2 |
| 20260507013836 | 56 | 170 | 0.0 | 0.0 | 0.00 | 0.07 | 0.07 | 86 | 1008.9 |
| 20260507013333 | 56 | 171 | 0.0 | 0.0 | 0.00 | 0.07 | 0.07 | 86 | 1009.2 |
| 20260507012831 | 56 | 139 | 0.0 | 0.0 | 0.00 | 0.07 | 0.07 | 86 | 1009.0 |
| 20260507012326 | 56 | 124 | 0.0 | 1.0 | 0.00 | 0.07 | 0.07 | 86 | 1009.3 |
| 20260507011823 | 57 | 133 | 1.0 | 1.0 | 0.00 | 0.07 | 0.07 | 85 | 1009.3 |
| 20260507011320 | 57 | 110 | 1.0 | 1.0 | 0.00 | 0.07 | 0.07 | 85 | 1009.0 |
| 20260507010820 | 57 | 88 | 0.0 | 0.0 | 0.00 | 0.07 | 0.07 | 85 | 1008.6 |
| 20260507010315 | 57 | 153 | 0.0 | 0.0 | 0.00 | 0.07 | 0.07 | 85 | 1008.8 |
| 20260507005813 | 57 | 123 | 0.0 | 0.0 | 0.00 | 0.07 | 0.07 | 85 | 1009.0 |
| 20260507005309 | 57 | 91 | 0.0 | 0.0 | 0.00 | 0.07 | 0.07 | 86 | 1008.7 |
| 20260507004801 | 57 | 112 | 1.0 | 1.0 | 0.00 | 0.07 | 0.07 | 86 | 1008.6 |
| 20260507004258 | 57 | 140 | 0.0 | 0.0 | 0.00 | 0.07 | 0.07 | 86 | 1008.9 |
| 20260507003754 | 57 | 112 | 0.0 | 0.0 | 0.00 | 0.07 | 0.07 | 87 | 1008.9 |
| 20260507003250 | 57 | 153 | 1.0 | 1.0 | 0.00 | 0.07 | 0.07 | 86 | 1009.3 |
| 20260507002746 | 57 | 91 | 0.0 | 0.0 | 0.00 | 0.07 | 0.07 | 87 | 1009.4 |
| 20260507002242 | 58 | 117 | 0.0 | 1.0 | 0.00 | 0.07 | 0.07 | 88 | 1009.1 |
| 20260507001739 | 58 | 119 | 1.0 | 1.0 | 0.00 | 0.07 | 0.07 | 87 | 1008.7 |
| 20260507001236 | 58 | 113 | 0.0 | 1.0 | 0.00 | 0.07 | 0.07 | 87 | 1009.0 |
| 20260507000733 | 58 | 77 | 1.0 | 1.0 | 0.00 | 0.07 | 0.07 | 88 | 1008.8 |
| 20260507000228 | 59 | 125 | 2.0 | 2.0 | 0.00 | 0.07 | 0.07 | 88 | 1008.9 |
| 20260506235725 | 59 | 147 | 1.0 | 1.0 | 0.00 | 0.07 | 0.07 | 88 | 1009.1 |
| 20260506235221 | 59 | 118 | 0.0 | 0.0 | 0.00 | 0.07 | 0.07 | 89 | 1008.9 |
| 20260506234718 | 59 | 112 | 0.0 | 0.0 | 0.00 | 0.07 | 0.07 | 89 | 1008.9 |
| 20260506234215 | 59 | 92 | 1.0 | 1.0 | 0.00 | 0.07 | 0.07 | 88 | 1008.6 |
| 20260506233713 | 59 | 115 | 0.0 | 0.0 | 0.00 | 0.07 | 0.07 | 89 | 1008.6 |
| 20260506233209 | 60 | 73 | 1.0 | 1.0 | 0.00 | 0.07 | 0.07 | 88 | 1008.4 |
| 20260506232706 | 60 | 74 | 0.0 | 0.0 | 0.00 | 0.07 | 0.07 | 89 | 1008.6 |
| 20260506232200 | 60 | 101 | 0.0 | 1.0 | 0.00 | 0.07 | 0.07 | 89 | 1008.4 |
| 20260506231658 | 60 | 52 | 0.0 | 0.0 | 0.00 | 0.07 | 0.07 | 90 | 1008.4 |
| 20260506231157 | 60 | 89 | 0.0 | 0.0 | 0.00 | 0.07 | 0.07 | 90 | 1008.2 |
| 20260506230653 | 60 | 92 | 0.0 | 0.0 | 0.00 | 0.07 | 0.07 | 90 | 1008.1 |
| 20260506230150 | 60 | 147 | 1.0 | 1.0 | 0.00 | 0.07 | 0.07 | 91 | 1008.1 |
| 20260506225646 | 60 | 109 | 0.0 | 1.0 | 0.00 | 0.07 | 0.07 | 90 | 1007.8 |
| 20260506225143 | 61 | 121 | 1.0 | 1.0 | 0.00 | 0.07 | 0.07 | 90 | 1007.9 |
| 20260506224639 | 61 | 134 | 1.0 | 1.0 | 0.00 | 0.07 | 0.07 | 89 | 1007.8 |
| 20260506224136 | 62 | 131 | 1.0 | 1.0 | 0.00 | 0.07 | 0.07 | 87 | 1007.9 |
| 20260506223632 | 62 | 90 | 0.0 | 0.0 | 0.00 | 0.07 | 0.07 | 87 | 1007.5 |
| 20260506223128 | 62 | 203 | 2.0 | 2.0 | 0.00 | 0.07 | 0.07 | 86 | 1007.6 |
| 20260506222626 | 62 | 130 | 0.0 | 1.0 | 0.00 | 0.07 | 0.07 | 86 | 1007.7 |
| 20260506222122 | 63 | 166 | 1.0 | 1.0 | 0.00 | 0.07 | 0.07 | 86 | 1007.4 |
| 20260506221620 | 63 | 116 | 2.0 | 2.0 | 0.00 | 0.07 | 0.07 | 86 | 1007.1 |
| 20260506221118 | 63 | 90 | 0.0 | 0.0 | 0.00 | 0.07 | 0.07 | 87 | 1007.4 |
| 20260506220614 | 63 | 120 | 2.0 | 2.0 | 0.00 | 0.07 | 0.07 | 87 | 1007.4 |
| 20260506220109 | 64 | 84 | 0.0 | 0.0 | 0.00 | 0.07 | 0.07 | 87 | 1007.5 |
| 20260506215606 | 64 | 161 | 0.0 | 0.0 | 0.00 | 0.07 | 0.07 | 86 | 1007.6 |
| 20260506215101 | 64 | 147 | 1.0 | 2.0 | 0.00 | 0.07 | 0.07 | 85 | 1007.4 |
| 20260506214559 | 64 | 122 | 1.0 | 1.0 | 0.00 | 0.07 | 0.07 | 86 | 1006.9 |
| 20260506214056 | 65 | 150 | 0.0 | 0.0 | 0.00 | 0.07 | 0.07 | 84 | 1006.6 |
| 20260506213554 | 65 | 105 | 1.0 | 1.0 | 0.00 | 0.07 | 0.07 | 83 | 1006.7 |
| 20260506213051 | 66 | 121 | 1.0 | 1.0 | 0.00 | 0.07 | 0.07 | 83 | 1006.7 |
| 20260506212548 | 66 | 57 | 0.0 | 1.0 | 0.00 | 0.07 | 0.07 | 80 | 1006.6 |
| 20260506212043 | 66 | 98 | 2.0 | 2.0 | 0.00 | 0.07 | 0.07 | 82 | 1006.5 |
| 20260506211539 | 67 | 78 | 0.0 | 0.0 | 0.00 | 0.07 | 0.07 | 82 | 1006.4 |
| 20260506211036 | 67 | 131 | 1.0 | 1.0 | 0.00 | 0.07 | 0.07 | 80 | 1006.4 |
| 20260506210532 | 68 | 114 | 1.0 | 1.0 | 0.00 | 0.07 | 0.07 | 81 | 1006.5 |
| 20260506210029 | 68 | 100 | 1.0 | 1.0 | 0.00 | 0.07 | 0.07 | 80 | 1006.4 |
| 20260506205526 | 68 | 71 | 0.0 | 1.0 | 0.00 | 0.07 | 0.07 | 81 | 1006.3 |
| 20260506205021 | 68 | 71 | 0.0 | 0.0 | 0.00 | 0.07 | 0.07 | 81 | 1006.3 |
| 20260506204520 | 68 | 71 | 0.0 | 0.0 | 0.00 | 0.07 | 0.07 | 83 | 1005.9 |
| 20260506204016 | 68 | 72 | 0.0 | 0.0 | 0.00 | 0.07 | 0.07 | 80 | 1006.0 |
| 20260506203515 | 68 | 71 | 0.0 | 0.0 | 0.00 | 0.07 | 0.07 | 81 | 1006.0 |
| 20260506203010 | 68 | 71 | 0.0 | 0.0 | 0.00 | 0.07 | 0.07 | 83 | 1006.0 |
| 20260506202508 | 67 | 72 | 0.0 | 0.0 | 0.00 | 0.07 | 0.07 | 82 | 1005.9 |
| 20260506202004 | 68 | 71 | 0.0 | 0.0 | 0.00 | 0.07 | 0.07 | 86 | 1006.0 |